sensor_id;sensor_type;location;lat;lon;timestamp;temperature;humidity
41904;DHT22;27586;51.124;4.182;2023-03-12T00:01:26;5.80;99.90
41904;DHT22;27586;51.124;4.182;2023-03-12T00:03:54;5.80;99.90
41904;DHT22;27586;51.124;4.182;2023-03-12T00:06:20;5.70;99.90
41904;DHT22;27586;51.124;4.182;2023-03-12T00:08:47;5.80;99.90
41904;DHT22;27586;51.124;4.182;2023-03-12T00:11:15;5.80;99.90
41904;DHT22;27586;51.124;4.182;2023-03-12T00:13:42;5.80;99.90
41904;DHT22;27586;51.124;4.182;2023-03-12T00:16:14;5.70;99.90
41904;DHT22;27586;51.124;4.182;2023-03-12T00:18:41;5.80;99.90
41904;DHT22;27586;51.124;4.182;2023-03-12T00:21:08;5.70;99.90
41904;DHT22;27586;51.124;4.182;2023-03-12T00:23:34;5.70;99.90
41904;DHT22;27586;51.124;4.182;2023-03-12T00:26:02;5.70;99.90
41904;DHT22;27586;51.124;4.182;2023-03-12T00:28:28;5.70;99.90
41904;DHT22;27586;51.124;4.182;2023-03-12T00:30:54;5.80;99.90
41904;DHT22;27586;51.124;4.182;2023-03-12T00:33:20;5.80;99.90
41904;DHT22;27586;51.124;4.182;2023-03-12T00:35:46;5.80;99.90
41904;DHT22;27586;51.124;4.182;2023-03-12T00:38:11;5.80;99.90
41904;DHT22;27586;51.124;4.182;2023-03-12T00:40:37;5.80;99.90
41904;DHT22;27586;51.124;4.182;2023-03-12T00:43:04;5.90;99.90
41904;DHT22;27586;51.124;4.182;2023-03-12T00:45:29;5.90;99.90
41904;DHT22;27586;51.124;4.182;2023-03-12T00:47:55;5.90;99.90
41904;DHT22;27586;51.124;4.182;2023-03-12T00:50:21;5.90;99.90
41904;DHT22;27586;51.124;4.182;2023-03-12T00:52:46;5.90;99.90
41904;DHT22;27586;51.124;4.182;2023-03-12T00:55:12;6.00;99.90
41904;DHT22;27586;51.124;4.182;2023-03-12T00:57:38;6.00;99.90
41904;DHT22;27586;51.124;4.182;2023-03-12T01:00:04;6.00;99.90
41904;DHT22;27586;51.124;4.182;2023-03-12T01:02:35;6.00;99.90
41904;DHT22;27586;51.124;4.182;2023-03-12T01:05:02;6.00;99.90
41904;DHT22;27586;51.124;4.182;2023-03-12T01:07:28;6.00;99.90
41904;DHT22;27586;51.124;4.182;2023-03-12T01:09:53;6.00;99.90
41904;DHT22;27586;51.124;4.182;2023-03-12T01:12:19;6.00;99.90
41904;DHT22;27586;51.124;4.182;2023-03-12T01:14:45;6.00;99.90
41904;DHT22;27586;51.124;4.182;2023-03-12T01:17:10;6.00;99.90
41904;DHT22;27586;51.124;4.182;2023-03-12T01:19:36;6.00;99.90
41904;DHT22;27586;51.124;4.182;2023-03-12T01:22:02;6.00;99.90
41904;DHT22;27586;51.124;4.182;2023-03-12T01:24:27;6.10;99.90
41904;DHT22;27586;51.124;4.182;2023-03-12T01:26:53;6.10;99.90
41904;DHT22;27586;51.124;4.182;2023-03-12T01:29:19;6.10;99.90
41904;DHT22;27586;51.124;4.182;2023-03-12T01:31:44;6.10;99.90
41904;DHT22;27586;51.124;4.182;2023-03-12T01:34:11;6.10;99.90
41904;DHT22;27586;51.124;4.182;2023-03-12T01:36:36;6.10;99.90
41904;DHT22;27586;51.124;4.182;2023-03-12T01:39:03;6.10;99.90
41904;DHT22;27586;51.124;4.182;2023-03-12T01:41:30;6.10;99.90
41904;DHT22;27586;51.124;4.182;2023-03-12T01:43:57;6.00;99.90
41904;DHT22;27586;51.124;4.182;2023-03-12T01:49:15;6.10;99.90
41904;DHT22;27586;51.124;4.182;2023-03-12T01:54:33;6.20;99.90
41904;DHT22;27586;51.124;4.182;2023-03-12T01:57:01;6.20;99.90
41904;DHT22;27586;51.124;4.182;2023-03-12T01:59:38;6.20;99.90
41904;DHT22;27586;51.124;4.182;2023-03-12T02:02:05;6.20;99.90
41904;DHT22;27586;51.124;4.182;2023-03-12T02:04:32;6.30;99.90
41904;DHT22;27586;51.124;4.182;2023-03-12T02:07:04;6.20;99.90
41904;DHT22;27586;51.124;4.182;2023-03-12T02:09:32;6.30;99.90
41904;DHT22;27586;51.124;4.182;2023-03-12T02:11:58;6.30;99.90
41904;DHT22;27586;51.124;4.182;2023-03-12T02:14:24;6.30;99.90
41904;DHT22;27586;51.124;4.182;2023-03-12T02:16:52;6.20;99.90
41904;DHT22;27586;51.124;4.182;2023-03-12T02:19:24;6.10;99.90
41904;DHT22;27586;51.124;4.182;2023-03-12T02:21:52;6.20;99.90
41904;DHT22;27586;51.124;4.182;2023-03-12T02:24:29;6.30;99.90
41904;DHT22;27586;51.124;4.182;2023-03-12T02:26:57;6.20;99.90
41904;DHT22;27586;51.124;4.182;2023-03-12T02:29:25;6.10;99.90
41904;DHT22;27586;51.124;4.182;2023-03-12T02:31:54;6.10;99.90
41904;DHT22;27586;51.124;4.182;2023-03-12T02:34:21;6.20;99.90
41904;DHT22;27586;51.124;4.182;2023-03-12T02:36:48;6.20;99.90
41904;DHT22;27586;51.124;4.182;2023-03-12T02:39:14;6.20;99.90
41904;DHT22;27586;51.124;4.182;2023-03-12T02:41:43;6.10;99.90
41904;DHT22;27586;51.124;4.182;2023-03-12T02:44:26;6.10;99.90
41904;DHT22;27586;51.124;4.182;2023-03-12T02:46:54;6.10;99.90
41904;DHT22;27586;51.124;4.182;2023-03-12T02:49:22;6.00;99.90
41904;DHT22;27586;51.124;4.182;2023-03-12T02:51:48;6.00;99.90
41904;DHT22;27586;51.124;4.182;2023-03-12T02:54:16;6.00;99.90
41904;DHT22;27586;51.124;4.182;2023-03-12T02:56:42;6.10;99.90
41904;DHT22;27586;51.124;4.182;2023-03-12T02:59:09;6.00;99.90
41904;DHT22;27586;51.124;4.182;2023-03-12T03:01:35;6.10;99.90
41904;DHT22;27586;51.124;4.182;2023-03-12T03:04:03;6.00;99.90
41904;DHT22;27586;51.124;4.182;2023-03-12T03:06:29;6.00;99.90
41904;DHT22;27586;51.124;4.182;2023-03-12T03:08:56;6.10;99.90
41904;DHT22;27586;51.124;4.182;2023-03-12T03:11:22;6.10;99.90
41904;DHT22;27586;51.124;4.182;2023-03-12T03:13:51;6.10;99.90
41904;DHT22;27586;51.124;4.182;2023-03-12T03:16:17;6.00;99.90
41904;DHT22;27586;51.124;4.182;2023-03-12T03:18:43;6.00;99.90
41904;DHT22;27586;51.124;4.182;2023-03-12T03:21:09;6.00;99.90
41904;DHT22;27586;51.124;4.182;2023-03-12T03:23:41;6.00;99.90
41904;DHT22;27586;51.124;4.182;2023-03-12T03:26:07;6.00;99.90
41904;DHT22;27586;51.124;4.182;2023-03-12T03:28:32;6.00;99.90
41904;DHT22;27586;51.124;4.182;2023-03-12T03:30:58;6.00;99.90
41904;DHT22;27586;51.124;4.182;2023-03-12T03:33:27;6.10;99.90
41904;DHT22;27586;51.124;4.182;2023-03-12T03:35:53;6.10;99.90
41904;DHT22;27586;51.124;4.182;2023-03-12T03:38:21;6.10;99.90
41904;DHT22;27586;51.124;4.182;2023-03-12T03:40:47;6.00;99.90
41904;DHT22;27586;51.124;4.182;2023-03-12T03:43:12;6.00;99.90
41904;DHT22;27586;51.124;4.182;2023-03-12T03:45:38;6.10;99.90
41904;DHT22;27586;51.124;4.182;2023-03-12T03:48:04;6.00;99.90
41904;DHT22;27586;51.124;4.182;2023-03-12T03:50:30;6.00;99.90
41904;DHT22;27586;51.124;4.182;2023-03-12T03:52:56;6.00;99.90
41904;DHT22;27586;51.124;4.182;2023-03-12T03:55:21;6.00;99.90
41904;DHT22;27586;51.124;4.182;2023-03-12T03:57:47;6.00;99.90
41904;DHT22;27586;51.124;4.182;2023-03-12T04:00:13;6.10;99.90
41904;DHT22;27586;51.124;4.182;2023-03-12T04:02:42;6.00;99.90
41904;DHT22;27586;51.124;4.182;2023-03-12T04:05:09;6.00;99.90
41904;DHT22;27586;51.124;4.182;2023-03-12T04:07:38;6.10;99.90
41904;DHT22;27586;51.124;4.182;2023-03-12T04:10:04;6.00;99.90
41904;DHT22;27586;51.124;4.182;2023-03-12T04:12:30;6.00;99.90
41904;DHT22;27586;51.124;4.182;2023-03-12T04:14:56;6.00;99.90
41904;DHT22;27586;51.124;4.182;2023-03-12T04:17:22;6.10;99.90
41904;DHT22;27586;51.124;4.182;2023-03-12T04:19:47;6.10;99.90
41904;DHT22;27586;51.124;4.182;2023-03-12T04:22:13;6.10;99.90
41904;DHT22;27586;51.124;4.182;2023-03-12T04:24:39;6.20;99.90
41904;DHT22;27586;51.124;4.182;2023-03-12T04:27:04;6.20;99.90
41904;DHT22;27586;51.124;4.182;2023-03-12T04:29:30;6.20;99.90
41904;DHT22;27586;51.124;4.182;2023-03-12T04:31:56;6.10;99.90
41904;DHT22;27586;51.124;4.182;2023-03-12T04:34:21;6.10;99.90
41904;DHT22;27586;51.124;4.182;2023-03-12T04:36:47;6.10;99.90
41904;DHT22;27586;51.124;4.182;2023-03-12T04:39:16;6.10;99.90
41904;DHT22;27586;51.124;4.182;2023-03-12T04:41:43;6.10;99.90
41904;DHT22;27586;51.124;4.182;2023-03-12T04:44:08;6.10;99.90
41904;DHT22;27586;51.124;4.182;2023-03-12T04:46:34;6.10;99.90
41904;DHT22;27586;51.124;4.182;2023-03-12T04:49:00;6.10;99.90
41904;DHT22;27586;51.124;4.182;2023-03-12T04:51:27;6.10;99.90
41904;DHT22;27586;51.124;4.182;2023-03-12T04:53:54;6.20;99.90
41904;DHT22;27586;51.124;4.182;2023-03-12T04:56:20;6.20;99.90
41904;DHT22;27586;51.124;4.182;2023-03-12T04:58:46;6.20;99.90
41904;DHT22;27586;51.124;4.182;2023-03-12T05:01:27;6.20;99.90
41904;DHT22;27586;51.124;4.182;2023-03-12T05:03:53;6.20;99.90
41904;DHT22;27586;51.124;4.182;2023-03-12T05:06:20;6.20;99.90
41904;DHT22;27586;51.124;4.182;2023-03-12T05:08:47;6.20;99.90
41904;DHT22;27586;51.124;4.182;2023-03-12T05:11:13;6.20;99.90
41904;DHT22;27586;51.124;4.182;2023-03-12T05:13:39;6.30;99.90
41904;DHT22;27586;51.124;4.182;2023-03-12T05:16:05;6.30;99.90
41904;DHT22;27586;51.124;4.182;2023-03-12T05:18:31;6.30;99.90
41904;DHT22;27586;51.124;4.182;2023-03-12T05:21:08;6.30;99.90
41904;DHT22;27586;51.124;4.182;2023-03-12T05:23:34;6.40;99.90
41904;DHT22;27586;51.124;4.182;2023-03-12T05:26:00;6.30;99.90
41904;DHT22;27586;51.124;4.182;2023-03-12T05:28:26;6.20;99.90
41904;DHT22;27586;51.124;4.182;2023-03-12T05:31:08;6.30;99.90
41904;DHT22;27586;51.124;4.182;2023-03-12T05:33:35;6.30;99.90
41904;DHT22;27586;51.124;4.182;2023-03-12T05:36:01;6.30;99.90
41904;DHT22;27586;51.124;4.182;2023-03-12T05:38:26;6.30;99.90
41904;DHT22;27586;51.124;4.182;2023-03-12T05:40:54;6.30;99.90
41904;DHT22;27586;51.124;4.182;2023-03-12T05:43:20;6.30;99.90
41904;DHT22;27586;51.124;4.182;2023-03-12T05:45:46;6.30;99.90
41904;DHT22;27586;51.124;4.182;2023-03-12T05:48:12;6.30;99.90
41904;DHT22;27586;51.124;4.182;2023-03-12T05:50:37;6.30;99.90
41904;DHT22;27586;51.124;4.182;2023-03-12T05:53:03;6.30;99.90
41904;DHT22;27586;51.124;4.182;2023-03-12T05:55:29;6.40;99.90
41904;DHT22;27586;51.124;4.182;2023-03-12T05:57:54;6.40;99.90
41904;DHT22;27586;51.124;4.182;2023-03-12T06:00:21;6.30;99.90
41904;DHT22;27586;51.124;4.182;2023-03-12T06:02:46;6.30;99.90
41904;DHT22;27586;51.124;4.182;2023-03-12T06:05:12;6.30;99.90
41904;DHT22;27586;51.124;4.182;2023-03-12T06:07:38;6.30;99.90
41904;DHT22;27586;51.124;4.182;2023-03-12T06:10:04;6.40;99.90
41904;DHT22;27586;51.124;4.182;2023-03-12T06:12:30;6.30;99.90
41904;DHT22;27586;51.124;4.182;2023-03-12T06:14:56;6.40;99.90
41904;DHT22;27586;51.124;4.182;2023-03-12T06:17:22;6.40;99.90
41904;DHT22;27586;51.124;4.182;2023-03-12T06:19:51;6.40;99.90
41904;DHT22;27586;51.124;4.182;2023-03-12T06:22:20;6.50;99.90
41904;DHT22;27586;51.124;4.182;2023-03-12T06:24:46;6.40;99.90
41904;DHT22;27586;51.124;4.182;2023-03-12T06:27:13;6.40;99.90
41904;DHT22;27586;51.124;4.182;2023-03-12T06:29:39;6.50;99.90
41904;DHT22;27586;51.124;4.182;2023-03-12T06:32:05;6.50;99.90
41904;DHT22;27586;51.124;4.182;2023-03-12T06:34:31;6.50;99.90
41904;DHT22;27586;51.124;4.182;2023-03-12T06:36:57;6.50;99.90
41904;DHT22;27586;51.124;4.182;2023-03-12T06:39:23;6.50;99.90
41904;DHT22;27586;51.124;4.182;2023-03-12T06:41:49;6.50;99.90
41904;DHT22;27586;51.124;4.182;2023-03-12T06:44:15;6.60;99.90
41904;DHT22;27586;51.124;4.182;2023-03-12T06:46:40;6.60;99.90
41904;DHT22;27586;51.124;4.182;2023-03-12T06:49:08;6.60;99.90
41904;DHT22;27586;51.124;4.182;2023-03-12T06:51:34;6.80;99.90
41904;DHT22;27586;51.124;4.182;2023-03-12T06:53:59;6.80;99.90
41904;DHT22;27586;51.124;4.182;2023-03-12T06:56:27;6.80;99.90
41904;DHT22;27586;51.124;4.182;2023-03-12T06:58:53;6.80;99.90
41904;DHT22;27586;51.124;4.182;2023-03-12T07:01:18;6.80;99.90
41904;DHT22;27586;51.124;4.182;2023-03-12T07:03:44;6.80;99.90
41904;DHT22;27586;51.124;4.182;2023-03-12T07:06:18;6.90;99.90
41904;DHT22;27586;51.124;4.182;2023-03-12T07:08:44;6.90;99.90
41904;DHT22;27586;51.124;4.182;2023-03-12T07:11:11;7.00;99.90
41904;DHT22;27586;51.124;4.182;2023-03-12T07:13:38;7.10;99.90
41904;DHT22;27586;51.124;4.182;2023-03-12T07:16:04;7.10;99.90
41904;DHT22;27586;51.124;4.182;2023-03-12T07:18:30;7.10;99.90
41904;DHT22;27586;51.124;4.182;2023-03-12T07:20:56;7.20;99.90
41904;DHT22;27586;51.124;4.182;2023-03-12T07:23:22;7.30;99.90
41904;DHT22;27586;51.124;4.182;2023-03-12T07:25:48;7.40;99.90
41904;DHT22;27586;51.124;4.182;2023-03-12T07:28:14;7.50;99.90
41904;DHT22;27586;51.124;4.182;2023-03-12T07:30:40;7.50;99.90
41904;DHT22;27586;51.124;4.182;2023-03-12T07:33:09;7.60;99.90
41904;DHT22;27586;51.124;4.182;2023-03-12T07:35:35;7.60;99.90
41904;DHT22;27586;51.124;4.182;2023-03-12T07:38:03;7.70;99.90
41904;DHT22;27586;51.124;4.182;2023-03-12T07:40:29;7.80;99.90
41904;DHT22;27586;51.124;4.182;2023-03-12T07:42:55;7.90;99.90
41904;DHT22;27586;51.124;4.182;2023-03-12T07:45:21;8.00;99.90
41904;DHT22;27586;51.124;4.182;2023-03-12T07:47:47;8.10;99.90
41904;DHT22;27586;51.124;4.182;2023-03-12T07:50:13;8.20;99.90
41904;DHT22;27586;51.124;4.182;2023-03-12T07:52:39;8.20;99.90
41904;DHT22;27586;51.124;4.182;2023-03-12T07:55:05;8.30;99.90
41904;DHT22;27586;51.124;4.182;2023-03-12T07:57:31;8.40;99.90
41904;DHT22;27586;51.124;4.182;2023-03-12T07:59:57;8.40;99.90
41904;DHT22;27586;51.124;4.182;2023-03-12T08:02:22;8.50;99.90
41904;DHT22;27586;51.124;4.182;2023-03-12T08:04:48;8.50;99.90
41904;DHT22;27586;51.124;4.182;2023-03-12T08:07:14;8.60;99.90
41904;DHT22;27586;51.124;4.182;2023-03-12T08:09:40;8.70;99.90
41904;DHT22;27586;51.124;4.182;2023-03-12T08:12:06;8.70;99.90
41904;DHT22;27586;51.124;4.182;2023-03-12T08:14:33;8.90;99.90
41904;DHT22;27586;51.124;4.182;2023-03-12T08:16:59;8.90;99.90
41904;DHT22;27586;51.124;4.182;2023-03-12T08:19:25;8.90;99.90
41904;DHT22;27586;51.124;4.182;2023-03-12T08:21:51;9.00;99.90
41904;DHT22;27586;51.124;4.182;2023-03-12T08:24:18;9.10;99.90
41904;DHT22;27586;51.124;4.182;2023-03-12T08:26:44;9.20;99.90
41904;DHT22;27586;51.124;4.182;2023-03-12T08:29:10;9.20;99.90
41904;DHT22;27586;51.124;4.182;2023-03-12T08:31:36;9.30;99.90
41904;DHT22;27586;51.124;4.182;2023-03-12T08:34:02;9.40;99.90
41904;DHT22;27586;51.124;4.182;2023-03-12T08:36:28;9.50;99.90
41904;DHT22;27586;51.124;4.182;2023-03-12T08:38:53;9.70;99.90
41904;DHT22;27586;51.124;4.182;2023-03-12T08:41:19;9.80;99.90
41904;DHT22;27586;51.124;4.182;2023-03-12T08:43:45;9.90;99.90
41904;DHT22;27586;51.124;4.182;2023-03-12T08:46:11;10.00;99.90
41904;DHT22;27586;51.124;4.182;2023-03-12T08:48:37;10.00;99.90
41904;DHT22;27586;51.124;4.182;2023-03-12T08:51:03;10.10;99.90
41904;DHT22;27586;51.124;4.182;2023-03-12T08:53:31;10.10;99.90
41904;DHT22;27586;51.124;4.182;2023-03-12T08:55:57;10.20;99.90
41904;DHT22;27586;51.124;4.182;2023-03-12T08:58:24;10.30;99.90
41904;DHT22;27586;51.124;4.182;2023-03-12T09:00:51;10.40;99.90
41904;DHT22;27586;51.124;4.182;2023-03-12T09:03:17;10.60;99.90
41904;DHT22;27586;51.124;4.182;2023-03-12T09:05:43;10.70;99.90
41904;DHT22;27586;51.124;4.182;2023-03-12T09:08:10;10.80;99.90
41904;DHT22;27586;51.124;4.182;2023-03-12T09:10:37;10.90;99.90
41904;DHT22;27586;51.124;4.182;2023-03-12T09:13:06;11.00;99.90
41904;DHT22;27586;51.124;4.182;2023-03-12T09:15:32;11.00;99.90
41904;DHT22;27586;51.124;4.182;2023-03-12T09:17:58;11.00;99.90
41904;DHT22;27586;51.124;4.182;2023-03-12T09:20:24;11.10;99.90
41904;DHT22;27586;51.124;4.182;2023-03-12T09:22:50;11.20;99.90
41904;DHT22;27586;51.124;4.182;2023-03-12T09:25:16;11.30;99.90
41904;DHT22;27586;51.124;4.182;2023-03-12T09:27:45;11.10;99.90
41904;DHT22;27586;51.124;4.182;2023-03-12T09:30:18;11.20;99.90
41904;DHT22;27586;51.124;4.182;2023-03-12T09:32:44;11.30;99.90
41904;DHT22;27586;51.124;4.182;2023-03-12T09:35:11;11.30;99.90
41904;DHT22;27586;51.124;4.182;2023-03-12T09:37:37;11.30;99.90
41904;DHT22;27586;51.124;4.182;2023-03-12T09:40:04;11.50;99.90
41904;DHT22;27586;51.124;4.182;2023-03-12T09:42:42;11.60;99.90
41904;DHT22;27586;51.124;4.182;2023-03-12T09:45:15;11.50;99.90
41904;DHT22;27586;51.124;4.182;2023-03-12T09:47:47;11.70;99.90
41904;DHT22;27586;51.124;4.182;2023-03-12T09:50:22;11.90;99.90
41904;DHT22;27586;51.124;4.182;2023-03-12T09:55:41;12.40;99.90
41904;DHT22;27586;51.124;4.182;2023-03-12T09:58:34;12.50;99.90
41904;DHT22;27586;51.124;4.182;2023-03-12T10:01:37;12.70;99.90
41904;DHT22;27586;51.124;4.182;2023-03-12T10:04:18;12.80;99.90
41904;DHT22;27586;51.124;4.182;2023-03-12T10:23:10;12.60;99.90
41904;DHT22;27586;51.124;4.182;2023-03-12T10:25:50;12.60;99.90
41904;DHT22;27586;51.124;4.182;2023-03-12T10:31:18;12.80;99.90
41904;DHT22;27586;51.124;4.182;2023-03-12T10:33:54;13.00;99.90
41904;DHT22;27586;51.124;4.182;2023-03-12T10:36:27;13.10;99.90
41904;DHT22;27586;51.124;4.182;2023-03-12T10:38:54;13.10;99.90
41904;DHT22;27586;51.124;4.182;2023-03-12T10:41:26;13.20;99.90
41904;DHT22;27586;51.124;4.182;2023-03-12T10:43:53;13.20;99.90
41904;DHT22;27586;51.124;4.182;2023-03-12T10:49:35;13.20;99.90
41904;DHT22;27586;51.124;4.182;2023-03-12T10:52:03;13.40;99.90
41904;DHT22;27586;51.124;4.182;2023-03-12T10:54:39;13.50;99.90
41904;DHT22;27586;51.124;4.182;2023-03-12T10:57:06;13.70;99.90
41904;DHT22;27586;51.124;4.182;2023-03-12T10:59:34;13.80;99.90
41904;DHT22;27586;51.124;4.182;2023-03-12T11:02:02;13.90;99.90
41904;DHT22;27586;51.124;4.182;2023-03-12T11:04:30;13.80;99.90
41904;DHT22;27586;51.124;4.182;2023-03-12T11:09:31;13.90;99.90
41904;DHT22;27586;51.124;4.182;2023-03-12T11:11:57;14.00;99.90
41904;DHT22;27586;51.124;4.182;2023-03-12T11:14:28;13.80;99.90
41904;DHT22;27586;51.124;4.182;2023-03-12T11:16:55;13.80;99.90
41904;DHT22;27586;51.124;4.182;2023-03-12T11:19:32;13.90;99.90
41904;DHT22;27586;51.124;4.182;2023-03-12T11:22:04;14.00;99.90
41904;DHT22;27586;51.124;4.182;2023-03-12T11:24:31;13.80;99.90
41904;DHT22;27586;51.124;4.182;2023-03-12T11:27:04;13.70;99.90
41904;DHT22;27586;51.124;4.182;2023-03-12T11:29:33;13.70;99.90
41904;DHT22;27586;51.124;4.182;2023-03-12T11:32:17;13.80;99.90
41904;DHT22;27586;51.124;4.182;2023-03-12T11:34:44;14.00;99.90
41904;DHT22;27586;51.124;4.182;2023-03-12T11:37:39;13.90;99.90
41904;DHT22;27586;51.124;4.182;2023-03-12T11:43:28;13.80;99.90
41904;DHT22;27586;51.124;4.182;2023-03-12T11:46:16;13.90;99.90
41904;DHT22;27586;51.124;4.182;2023-03-12T11:49:08;14.10;99.90
41904;DHT22;27586;51.124;4.182;2023-03-12T11:51:52;14.30;99.90
41904;DHT22;27586;51.124;4.182;2023-03-12T11:54:47;14.40;99.90
41904;DHT22;27586;51.124;4.182;2023-03-12T11:59:57;14.50;99.90
41904;DHT22;27586;51.124;4.182;2023-03-12T12:02:32;14.70;99.90
41904;DHT22;27586;51.124;4.182;2023-03-12T12:16:57;14.20;99.90
41904;DHT22;27586;51.124;4.182;2023-03-12T12:19:36;14.00;99.90
41904;DHT22;27586;51.124;4.182;2023-03-12T12:27:28;13.90;99.90
41904;DHT22;27586;51.124;4.182;2023-03-12T12:30:13;14.00;99.90
41904;DHT22;27586;51.124;4.182;2023-03-12T12:36:01;14.00;99.90
41904;DHT22;27586;51.124;4.182;2023-03-12T12:41:18;13.90;99.90
41904;DHT22;27586;51.124;4.182;2023-03-12T12:44:11;13.80;99.90
41904;DHT22;27586;51.124;4.182;2023-03-12T12:46:43;13.90;99.90
41904;DHT22;27586;51.124;4.182;2023-03-12T12:49:16;13.80;99.90
41904;DHT22;27586;51.124;4.182;2023-03-12T12:51:56;13.60;99.90
41904;DHT22;27586;51.124;4.182;2023-03-12T13:02:56;13.40;99.90
41904;DHT22;27586;51.124;4.182;2023-03-12T13:05:28;13.40;99.90
41904;DHT22;27586;51.124;4.182;2023-03-12T13:08:05;13.40;99.90
41904;DHT22;27586;51.124;4.182;2023-03-12T13:13:02;13.40;99.90
41904;DHT22;27586;51.124;4.182;2023-03-12T13:20:21;13.70;99.90
41904;DHT22;27586;51.124;4.182;2023-03-12T13:30:56;13.80;99.90
41904;DHT22;27586;51.124;4.182;2023-03-12T13:33:44;13.80;99.90
41904;DHT22;27586;51.124;4.182;2023-03-12T13:38:58;13.80;99.90
41904;DHT22;27586;51.124;4.182;2023-03-12T13:41:37;13.70;99.90
41904;DHT22;27586;51.124;4.182;2023-03-12T13:49:54;13.80;99.90
41904;DHT22;27586;51.124;4.182;2023-03-12T13:55:26;13.80;99.90
41904;DHT22;27586;51.124;4.182;2023-03-12T14:01:04;14.00;99.90
41904;DHT22;27586;51.124;4.182;2023-03-12T14:03:39;14.10;99.90
41904;DHT22;27586;51.124;4.182;2023-03-12T14:06:12;14.10;99.90
41904;DHT22;27586;51.124;4.182;2023-03-12T14:11:23;13.90;99.90
41904;DHT22;27586;51.124;4.182;2023-03-12T14:16:42;13.50;99.90
41904;DHT22;27586;51.124;4.182;2023-03-12T14:19:15;13.50;99.90
41904;DHT22;27586;51.124;4.182;2023-03-12T14:21:44;13.50;99.90
41904;DHT22;27586;51.124;4.182;2023-03-12T14:26:55;14.00;99.90
41904;DHT22;27586;51.124;4.182;2023-03-12T14:29:38;13.90;99.90
41904;DHT22;27586;51.124;4.182;2023-03-12T14:32:13;13.80;99.90
41904;DHT22;27586;51.124;4.182;2023-03-12T14:34:46;13.80;99.90
41904;DHT22;27586;51.124;4.182;2023-03-12T14:37:43;13.70;99.90
41904;DHT22;27586;51.124;4.182;2023-03-12T14:40:23;13.80;99.90
41904;DHT22;27586;51.124;4.182;2023-03-12T14:42:50;13.70;99.90
41904;DHT22;27586;51.124;4.182;2023-03-12T14:45:20;13.70;99.90
41904;DHT22;27586;51.124;4.182;2023-03-12T14:47:52;13.60;99.90
41904;DHT22;27586;51.124;4.182;2023-03-12T14:50:23;13.60;99.90
41904;DHT22;27586;51.124;4.182;2023-03-12T14:52:50;13.60;99.90
41904;DHT22;27586;51.124;4.182;2023-03-12T14:55:22;13.50;99.90
41904;DHT22;27586;51.124;4.182;2023-03-12T14:57:48;13.40;99.90
41904;DHT22;27586;51.124;4.182;2023-03-12T15:02:47;13.40;99.90
41904;DHT22;27586;51.124;4.182;2023-03-12T15:05:16;13.40;99.90
41904;DHT22;27586;51.124;4.182;2023-03-12T15:07:43;13.30;99.90
41904;DHT22;27586;51.124;4.182;2023-03-12T15:10:23;13.40;99.90
41904;DHT22;27586;51.124;4.182;2023-03-12T15:12:51;13.30;99.90
41904;DHT22;27586;51.124;4.182;2023-03-12T15:15:54;13.10;99.90
41904;DHT22;27586;51.124;4.182;2023-03-12T15:18:27;13.10;99.90
41904;DHT22;27586;51.124;4.182;2023-03-12T15:20:54;13.00;99.90
41904;DHT22;27586;51.124;4.182;2023-03-12T15:23:21;13.10;99.90
41904;DHT22;27586;51.124;4.182;2023-03-12T15:25:48;13.10;99.90
41904;DHT22;27586;51.124;4.182;2023-03-12T15:28:32;13.00;99.90
41904;DHT22;27586;51.124;4.182;2023-03-12T15:31:12;13.00;99.90
41904;DHT22;27586;51.124;4.182;2023-03-12T15:33:41;13.20;99.90
41904;DHT22;27586;51.124;4.182;2023-03-12T15:38:49;13.10;99.90
41904;DHT22;27586;51.124;4.182;2023-03-12T15:41:30;12.90;99.90
41904;DHT22;27586;51.124;4.182;2023-03-12T15:44:00;12.90;99.90
41904;DHT22;27586;51.124;4.182;2023-03-12T15:46:26;12.90;99.90
41904;DHT22;27586;51.124;4.182;2023-03-12T15:48:55;12.80;99.90
41904;DHT22;27586;51.124;4.182;2023-03-12T15:51:32;12.80;99.90
41904;DHT22;27586;51.124;4.182;2023-03-12T15:56:43;12.80;99.90
41904;DHT22;27586;51.124;4.182;2023-03-12T16:01:49;12.80;99.90
41904;DHT22;27586;51.124;4.182;2023-03-12T16:04:15;12.80;99.90
41904;DHT22;27586;51.124;4.182;2023-03-12T16:06:41;12.90;99.90
41904;DHT22;27586;51.124;4.182;2023-03-12T16:09:13;13.00;99.90
41904;DHT22;27586;51.124;4.182;2023-03-12T16:11:40;12.80;99.90
41904;DHT22;27586;51.124;4.182;2023-03-12T16:14:32;12.80;99.90
41904;DHT22;27586;51.124;4.182;2023-03-12T16:16:59;12.80;99.90
41904;DHT22;27586;51.124;4.182;2023-03-12T16:19:28;12.70;99.90
41904;DHT22;27586;51.124;4.182;2023-03-12T16:21:54;12.60;99.90
41904;DHT22;27586;51.124;4.182;2023-03-12T16:24:20;12.70;99.90
41904;DHT22;27586;51.124;4.182;2023-03-12T16:26:50;12.60;99.90
41904;DHT22;27586;51.124;4.182;2023-03-12T16:29:17;12.60;99.90
41904;DHT22;27586;51.124;4.182;2023-03-12T16:31:51;12.50;99.90
41904;DHT22;27586;51.124;4.182;2023-03-12T16:34:18;12.60;99.90
41904;DHT22;27586;51.124;4.182;2023-03-12T16:36:44;12.50;99.90
41904;DHT22;27586;51.124;4.182;2023-03-12T16:39:13;12.40;99.90
41904;DHT22;27586;51.124;4.182;2023-03-12T16:41:38;12.30;99.90
41904;DHT22;27586;51.124;4.182;2023-03-12T16:44:06;12.40;99.90
41904;DHT22;27586;51.124;4.182;2023-03-12T16:46:33;12.50;99.90
41904;DHT22;27586;51.124;4.182;2023-03-12T16:48:59;12.60;99.90
41904;DHT22;27586;51.124;4.182;2023-03-12T16:51:25;12.40;99.90
41904;DHT22;27586;51.124;4.182;2023-03-12T16:53:53;12.40;99.90
41904;DHT22;27586;51.124;4.182;2023-03-12T16:56:21;12.40;99.90
41904;DHT22;27586;51.124;4.182;2023-03-12T16:58:48;12.20;99.90
41904;DHT22;27586;51.124;4.182;2023-03-12T17:01:16;12.30;99.90
41904;DHT22;27586;51.124;4.182;2023-03-12T17:03:44;12.20;99.90
41904;DHT22;27586;51.124;4.182;2023-03-12T17:06:18;12.20;99.90
41904;DHT22;27586;51.124;4.182;2023-03-12T17:08:44;12.10;99.90
41904;DHT22;27586;51.124;4.182;2023-03-12T17:11:19;12.00;99.90
41904;DHT22;27586;51.124;4.182;2023-03-12T17:13:49;12.00;99.90
41904;DHT22;27586;51.124;4.182;2023-03-12T17:16:15;11.90;99.90
41904;DHT22;27586;51.124;4.182;2023-03-12T17:18:42;11.80;99.90
41904;DHT22;27586;51.124;4.182;2023-03-12T17:21:14;11.90;99.90
41904;DHT22;27586;51.124;4.182;2023-03-12T17:23:40;11.80;99.90
41904;DHT22;27586;51.124;4.182;2023-03-12T17:26:06;11.80;99.90
41904;DHT22;27586;51.124;4.182;2023-03-12T17:28:32;11.80;99.90
41904;DHT22;27586;51.124;4.182;2023-03-12T17:30:58;11.70;99.90
41904;DHT22;27586;51.124;4.182;2023-03-12T17:33:24;11.70;99.90
41904;DHT22;27586;51.124;4.182;2023-03-12T17:35:58;11.70;99.90
41904;DHT22;27586;51.124;4.182;2023-03-12T17:38:24;11.60;99.90
41904;DHT22;27586;51.124;4.182;2023-03-12T17:40:50;11.50;99.90
41904;DHT22;27586;51.124;4.182;2023-03-12T17:43:16;11.50;99.90
41904;DHT22;27586;51.124;4.182;2023-03-12T17:45:42;11.40;99.90
41904;DHT22;27586;51.124;4.182;2023-03-12T17:48:07;11.50;99.90
41904;DHT22;27586;51.124;4.182;2023-03-12T17:50:33;11.40;99.90